Time;durP1;ratioP1;P1;durP2;ratioP2;P2;SDS_P1;SDS_P2;PMS_P1;PMS_P2;Temp;Humidity;BMP_temperature;BMP_pressure;BME280_temperature;BME280_humidity;BME280_pressure;Samples;Min_cycle;Max_cycle;Signal;HPM_P1;HPM_P2
2023/01/24 00:02:25;;;;;;;69.30;20.80;;;;;;;0.15;100.00;98314.20;109017;1270;22541;-78
2023/01/24 00:04:57;;;;;;;60.70;24.00;;;;;;;0.14;100.00;98315.17;109033;1271;22549;-78
2023/01/24 00:07:27;;;;;;;51.10;22.30;;;;;;;0.12;100.00;98315.52;108914;1271;23517;-78
2023/01/24 00:09:58;;;;;;;63.90;23.80;;;;;;;0.12;100.00;98314.88;109054;1269;22531;-78
2023/01/24 00:12:30;;;;;;;49.90;23.90;;;;;;;0.13;100.00;98311.84;108967;1271;25173;-78
2023/01/24 00:15:01;;;;;;;38.50;20.40;;;;;;;0.13;100.00;98311.41;109035;1270;22634;-77
2023/01/24 00:17:32;;;;;;;57.20;23.00;;;;;;;0.13;100.00;98312.45;109071;1270;22532;-78
2023/01/24 00:20:07;;;;;;;46.20;22.60;;;;;;;0.13;100.00;98309.03;109073;1270;24426;-77
2023/01/24 00:22:38;;;;;;;59.00;22.70;;;;;;;0.12;100.00;98309.23;109092;1270;22521;-78
2023/01/24 00:25:10;;;;;;;49.90;21.70;;;;;;;0.12;100.00;98310.48;109065;1270;24244;-76
2023/01/24 00:27:41;;;;;;;58.30;22.50;;;;;;;0.12;100.00;98312.37;109009;1269;23024;-78
2023/01/24 00:30:14;;;;;;;41.10;22.20;;;;;;;0.12;100.00;98312.83;108935;1269;23176;-77
2023/01/24 00:32:45;;;;;;;57.00;21.20;;;;;;;0.12;100.00;98314.23;109069;1270;24240;-77
2023/01/24 00:35:45;;;;;;;37.00;20.40;;;;;;;0.11;100.00;98320.52;108918;1271;22522;-77
2023/01/24 00:38:16;;;;;;;41.50;22.30;;;;;;;0.10;100.00;98320.42;109064;1269;24239;-77
2023/01/24 00:40:48;;;;;;;42.50;21.50;;;;;;;0.11;100.00;98322.15;109066;1248;24378;-78
2023/01/24 00:43:19;;;;;;;36.90;21.10;;;;;;;0.09;100.00;98321.24;109135;1269;22607;-78
2023/01/24 00:45:49;;;;;;;40.90;20.60;;;;;;;0.08;100.00;98320.84;109063;1264;22532;-78
2023/01/24 00:48:20;;;;;;;41.40;20.50;;;;;;;0.08;100.00;98318.70;109010;1272;22532;-78
2023/01/24 00:50:52;;;;;;;40.90;22.00;;;;;;;0.07;100.00;98317.35;109033;1270;23318;-78
2023/01/24 00:53:22;;;;;;;42.30;21.40;;;;;;;0.06;100.00;98316.22;109076;1270;22530;-78
2023/01/24 00:55:54;;;;;;;48.30;22.20;;;;;;;0.06;100.00;98315.70;108992;1270;22535;-78
2023/01/24 00:58:25;;;;;;;39.80;21.20;;;;;;;0.06;100.00;98315.93;109007;1272;22574;-78
2023/01/24 01:01:02;;;;;;;56.20;24.20;;;;;;;0.05;100.00;98318.40;109027;1270;24240;-78
2023/01/24 01:03:33;;;;;;;44.20;22.30;;;;;;;0.07;100.00;98325.41;108998;1271;22525;-78
2023/01/24 01:06:07;;;;;;;48.50;22.90;;;;;;;0.06;100.00;98327.34;109018;1269;22534;-77
2023/01/24 01:08:38;;;;;;;46.10;20.80;;;;;;;0.05;100.00;98327.80;109193;1270;22521;-78
2023/01/24 01:11:10;;;;;;;59.00;22.60;;;;;;;0.06;100.00;98328.61;109095;1270;23774;-78
2023/01/24 01:13:41;;;;;;;50.70;23.20;;;;;;;0.06;100.00;98331.87;109009;1271;22633;-78
2023/01/24 01:16:16;;;;;;;42.10;22.00;;;;;;;0.05;100.00;98332.69;109019;1270;22525;-78
2023/01/24 01:18:51;;;;;;;38.80;21.80;;;;;;;0.05;100.00;98326.23;109012;1270;25453;-77
2023/01/24 01:21:23;;;;;;;40.30;22.70;;;;;;;0.05;100.00;98329.06;108934;1271;25431;-77
2023/01/24 01:23:54;;;;;;;39.40;21.60;;;;;;;0.05;100.00;98327.30;109088;1270;22600;-78
2023/01/24 01:26:25;;;;;;;39.20;22.30;;;;;;;0.05;100.00;98328.71;109012;1270;25656;-78
2023/01/24 01:28:56;;;;;;;43.40;23.60;;;;;;;0.04;100.00;98325.13;109059;1271;22539;-78
2023/01/24 01:31:29;;;;;;;41.80;21.20;;;;;;;0.05;100.00;98326.50;109027;1270;25420;-77
2023/01/24 01:34:00;;;;;;;50.10;23.30;;;;;;;0.04;100.00;98329.73;108860;1272;28547;-78
2023/01/24 01:36:31;;;;;;;45.30;22.50;;;;;;;0.04;100.00;98327.84;109002;1269;22536;-78
2023/01/24 01:39:02;;;;;;;49.70;22.00;;;;;;;0.03;100.00;98330.84;108964;1271;22548;-78
2023/01/24 01:41:33;;;;;;;46.20;23.00;;;;;;;0.03;100.00;98331.59;109155;1270;24282;-78
2023/01/24 01:47:19;;;;;;;39.90;21.60;;;;;;;0.02;100.00;98333.23;108945;1271;22532;-78
2023/01/24 01:49:57;;;;;;;38.00;21.70;;;;;;;0.02;100.00;98332.90;109032;1269;24412;-78
2023/01/24 01:52:34;;;;;;;54.20;22.70;;;;;;;0.02;100.00;98329.45;108924;1270;24242;-78
2023/01/24 01:55:11;;;;;;;41.20;23.70;;;;;;;-0.00;100.00;98329.77;109047;1272;22535;-77
2023/01/24 01:57:42;;;;;;;38.20;22.40;;;;;;;-0.01;100.00;98333.27;108960;1270;22668;-77
2023/01/24 02:00:16;;;;;;;35.30;21.40;;;;;;;-0.01;100.00;98332.75;109022;1271;22517;-77
2023/01/24 02:02:51;;;;;;;46.30;22.10;;;;;;;-0.01;100.00;98333.27;109115;1264;22564;-77
2023/01/24 02:05:25;;;;;;;60.60;22.50;;;;;;;-0.01;100.00;98331.94;109008;1272;23710;-77
2023/01/24 02:08:00;;;;;;;39.60;21.30;;;;;;;-0.02;100.00;98332.92;109036;1270;22533;-77
2023/01/24 02:11:37;;;;;;;43.70;22.20;;;;;;;-0.03;100.00;98336.93;109108;1270;22654;-77
2023/01/24 02:13:24;;;;;;;34.30;21.30;;;;;;;-0.02;100.00;98335.17;109053;1270;22525;-77
2023/01/24 02:16:05;;;;;;;38.90;22.70;;;;;;;-0.03;100.00;98332.63;108998;1264;22578;-77
2023/01/24 02:18:39;;;;;;;34.40;21.40;;;;;;;-0.03;100.00;98334.04;109024;1264;22529;-77
2023/01/24 02:21:12;;;;;;;41.20;22.30;;;;;;;-0.02;100.00;98335.55;109046;1269;22580;-78
2023/01/24 02:23:51;;;;;;;35.20;21.40;;;;;;;-0.03;100.00;98332.84;108980;1264;22528;-79
2023/01/24 02:26:24;;;;;;;36.50;22.10;;;;;;;-0.03;100.00;98326.79;109015;1264;25269;-78
2023/01/24 02:28:59;;;;;;;36.70;21.70;;;;;;;-0.03;100.00;98329.17;109326;1270;22573;-78
2023/01/24 02:31:30;;;;;;;31.00;18.80;;;;;;;-0.03;100.00;98326.89;109311;1264;22594;-78
2023/01/24 02:34:04;;;;;;;30.50;18.90;;;;;;;-0.02;100.00;98324.61;109336;1269;22538;-78
2023/01/24 02:36:38;;;;;;;34.70;19.20;;;;;;;-0.02;100.00;98326.95;109325;1264;22542;-78
2023/01/24 02:39:14;;;;;;;31.70;19.90;;;;;;;-0.01;100.00;98333.98;109362;1269;24528;-78
2023/01/24 02:41:50;;;;;;;29.70;17.80;;;;;;;0.00;100.00;98334.43;109356;1264;22539;-78
2023/01/24 02:44:27;;;;;;;31.60;19.10;;;;;;;0.01;100.00;98331.27;109343;1266;22667;-78
2023/01/24 02:46:58;;;;;;;34.50;20.00;;;;;;;0.01;100.00;98329.64;109382;1270;25890;-79
2023/01/24 02:49:29;;;;;;;33.20;20.80;;;;;;;0.03;100.00;98333.13;109379;1269;22535;-79
2023/01/24 02:54:51;;;;;;;35.80;21.10;;;;;;;0.03;100.00;98331.33;109286;1271;22528;-79
2023/01/24 03:00:13;;;;;;;37.90;22.10;;;;;;;0.04;100.00;98334.26;109361;1264;22521;-80
2023/01/24 03:02:45;;;;;;;40.40;22.70;;;;;;;0.03;100.00;98334.62;109360;1270;22583;-79
2023/01/24 03:05:17;;;;;;;44.00;22.60;;;;;;;0.04;100.00;98336.80;109316;1269;22523;-80
2023/01/24 03:07:49;;;;;;;69.20;24.50;;;;;;;0.05;100.00;98335.52;109320;1264;23349;-79
2023/01/24 03:10:23;;;;;;;73.40;22.50;;;;;;;0.04;100.00;98335.04;109307;1272;22542;-79
2023/01/24 03:35:25;;;;;;;62.40;19.00;;;;;;;0.00;100.00;98341.40;109358;1266;22483;-79
2023/01/24 03:40:44;;;;;;;43.90;17.10;;;;;;;-0.01;100.00;98335.23;109170;1264;22558;-79
2023/01/24 03:43:16;;;;;;;53.40;18.20;;;;;;;-0.01;100.00;98337.98;109397;1267;22568;-79
2023/01/24 03:45:52;;;;;;;33.60;16.70;;;;;;;-0.00;100.00;98340.02;109320;1255;25205;-79
2023/01/24 03:48:34;;;;;;;34.40;16.20;;;;;;;0.01;100.00;98344.67;109372;1266;22611;-79
2023/01/24 03:53:53;;;;;;;;;;;;;;;0.01;100.00;98349.86;109343;1264;25220;-79
2023/01/24 03:56:28;;;;;;;50.80;16.50;;;;;;;0.00;100.00;98351.80;109328;1264;22548;-79
2023/01/24 03:58:59;;;;;;;48.50;16.00;;;;;;;0.01;100.00;98356.83;109272;1269;22629;-79
2023/01/24 04:01:30;;;;;;;78.40;17.80;;;;;;;-0.01;100.00;98356.05;109312;1264;24274;-79
2023/01/24 04:04:02;;;;;;;56.60;15.50;;;;;;;-0.01;100.00;98355.18;109337;1264;23121;-79
2023/01/24 04:06:35;;;;;;;58.60;16.20;;;;;;;0.00;100.00;98353.21;109283;1270;22541;-78
2023/01/24 04:09:06;;;;;;;67.50;16.20;;;;;;;0.00;100.00;98349.56;109275;1268;22518;-80
2023/01/24 04:11:37;;;;;;;40.70;14.30;;;;;;;-0.01;100.00;98348.92;109324;1264;23225;-79
2023/01/24 04:14:08;;;;;;;54.50;16.00;;;;;;;-0.01;100.00;98346.54;109319;1269;25914;-79
2023/01/24 04:16:39;;;;;;;97.10;20.30;;;;;;;-0.01;100.00;98350.91;109323;1271;22555;-79
2023/01/24 04:19:10;;;;;;;59.00;15.40;;;;;;;-0.02;100.00;98353.02;109369;1264;25284;-79
2023/01/24 04:21:41;;;;;;;85.70;15.40;;;;;;;-0.01;100.00;98351.08;109389;1264;22580;-79
2023/01/24 04:24:12;;;;;;;75.90;16.60;;;;;;;-0.01;100.00;98353.84;109428;1270;22544;-79
2023/01/24 04:26:43;;;;;;;110.20;17.40;;;;;;;-0.02;100.00;98353.58;109410;1271;24274;-79
2023/01/24 04:29:14;;;;;;;65.60;15.80;;;;;;;-0.02;100.00;98352.02;109441;1271;24416;-79
2023/01/24 04:31:45;;;;;;;69.30;14.80;;;;;;;-0.02;100.00;98350.49;109384;1270;22535;-79
2023/01/24 04:34:16;;;;;;;51.20;16.20;;;;;;;-0.02;100.00;98349.94;109494;1271;22561;-79
2023/01/24 04:36:47;;;;;;;89.70;18.20;;;;;;;-0.01;100.00;98354.36;109441;1260;22550;-79
2023/01/24 04:39:18;;;;;;;90.40;14.90;;;;;;;-0.02;100.00;98354.91;109336;1270;22565;-79
2023/01/24 04:41:49;;;;;;;98.80;17.10;;;;;;;-0.02;100.00;98355.96;109507;1264;22521;-79
2023/01/24 04:44:20;;;;;;;69.70;14.20;;;;;;;-0.02;100.00;98353.55;109503;1270;22520;-79
2023/01/24 04:46:51;;;;;;;84.70;14.70;;;;;;;-0.03;100.00;98351.20;109413;1272;22535;-80
2023/01/24 04:49:22;;;;;;;94.40;17.20;;;;;;;-0.03;100.00;98355.94;109395;1270;104778;-79
2023/01/24 04:51:53;;;;;;;63.90;14.30;;;;;;;-0.03;100.00;98355.73;109417;1270;25477;-79
2023/01/24 04:54:26;;;;;;;78.00;16.00;;;;;;;-0.03;100.00;98357.63;109410;1264;22509;-79
2023/01/24 04:56:58;;;;;;;40.70;15.60;;;;;;;-0.03;100.00;98354.53;109388;1271;22524;-79
2023/01/24 04:59:29;;;;;;;60.00;14.20;;;;;;;-0.01;100.00;98358.73;109442;1270;25239;-79
2023/01/24 05:02:00;;;;;;;56.80;14.40;;;;;;;-0.01;100.00;98355.70;109414;1270;24260;-79
2023/01/24 05:04:31;;;;;;;64.20;16.30;;;;;;;-0.01;100.00;98354.66;109411;1270;24348;-79
2023/01/24 05:07:04;;;;;;;63.50;17.60;;;;;;;-0.01;100.00;98354.52;109388;1264;22539;-79
2023/01/24 05:09:35;;;;;;;39.50;13.30;;;;;;;-0.01;100.00;98353.27;109278;1271;25249;-79
2023/01/24 05:12:07;;;;;;;40.90;13.80;;;;;;;0.01;100.00;98350.05;109341;1264;22543;-78
2023/01/24 05:14:37;;;;;;;56.70;15.10;;;;;;;0.01;100.00;98352.30;109418;1270;25293;-79
2023/01/24 05:17:08;;;;;;;59.90;14.90;;;;;;;0.02;100.00;98355.48;109415;1264;25294;-79
2023/01/24 05:19:40;;;;;;;29.20;11.40;;;;;;;0.02;100.00;98354.41;109438;1264;22532;-79
2023/01/24 05:22:14;;;;;;;22.20;12.50;;;;;;;0.02;100.00;98353.24;109448;1270;22541;-79
2023/01/24 05:24:45;;;;;;;25.70;13.90;;;;;;;0.02;100.00;98354.73;109399;1270;22525;-79
2023/01/24 05:27:15;;;;;;;27.90;13.10;;;;;;;0.03;100.00;98357.59;109389;1270;22553;-79
2023/01/24 05:29:46;;;;;;;22.40;11.70;;;;;;;0.03;100.00;98358.44;109421;1270;22546;-79
2023/01/24 05:32:17;;;;;;;21.90;12.20;;;;;;;0.04;100.00;98360.30;109441;1270;23284;-79
2023/01/24 05:34:48;;;;;;;27.00;12.40;;;;;;;0.05;100.00;98358.83;109295;1264;22593;-79
2023/01/24 05:37:19;;;;;;;41.70;13.60;;;;;;;0.05;100.00;98360.52;109358;1270;22543;-79
2023/01/24 05:39:50;;;;;;;27.10;12.70;;;;;;;0.05;100.00;98364.16;109313;1271;22528;-79
2023/01/24 05:42:21;;;;;;;26.40;12.70;;;;;;;0.05;100.00;98362.56;109412;1270;25344;-79
2023/01/24 05:44:52;;;;;;;34.40;15.00;;;;;;;0.06;100.00;98360.61;109401;1270;22531;-79
2023/01/24 05:47:24;;;;;;;39.70;14.50;;;;;;;0.06;100.00;98361.13;109436;1270;22572;-79
2023/01/24 05:49:55;;;;;;;69.10;13.70;;;;;;;0.06;100.00;98364.88;109471;1270;22538;-79
2023/01/24 05:52:25;;;;;;;50.30;13.30;;;;;;;0.05;100.00;98361.91;109300;1271;22532;-79
2023/01/24 05:54:56;;;;;;;51.20;14.30;;;;;;;0.07;100.00;98369.73;109243;1264;22535;-79
2023/01/24 05:57:27;;;;;;;36.80;13.20;;;;;;;0.06;100.00;98365.96;109385;1270;24396;-79
2023/01/24 05:59:58;;;;;;;39.40;12.90;;;;;;;0.07;100.00;98367.61;109352;1271;23129;-79
2023/01/24 06:02:30;;;;;;;78.50;13.50;;;;;;;0.08;100.00;98368.91;109268;1271;22578;-80
2023/01/24 06:05:01;;;;;;;40.20;12.20;;;;;;;0.07;100.00;98372.10;109265;1271;22617;-79
2023/01/24 06:07:35;;;;;;;47.20;13.70;;;;;;;0.07;100.00;98373.00;109387;1270;22520;-79
2023/01/24 06:10:06;;;;;;;52.00;13.50;;;;;;;0.06;100.00;98375.31;109456;1271;22538;-79
2023/01/24 06:12:37;;;;;;;77.20;17.60;;;;;;;0.06;100.00;98379.02;109288;1270;23998;-80
2023/01/24 06:15:10;;;;;;;77.40;13.70;;;;;;;0.05;100.00;98381.38;109417;1270;25350;-80
2023/01/24 06:17:44;;;;;;;82.00;16.80;;;;;;;0.06;100.00;98385.64;109447;1264;25264;-78
2023/01/24 06:20:16;;;;;;;68.70;15.70;;;;;;;0.05;100.00;98388.16;109373;1247;22524;-80
2023/01/24 06:22:54;;;;;;;39.60;13.70;;;;;;;0.06;100.00;98383.23;109084;1270;22521;-80
2023/01/24 06:25:29;;;;;;;51.90;15.00;;;;;;;0.05;100.00;98388.65;109443;1271;28435;-81
2023/01/24 06:28:01;;;;;;;40.50;14.00;;;;;;;0.06;100.00;98394.86;109348;1270;22664;-82
2023/01/24 06:30:33;;;;;;;47.30;14.40;;;;;;;0.06;100.00;98401.90;109420;1271;22614;-78
2023/01/24 06:33:26;;;;;;;54.00;15.00;;;;;;;0.07;100.00;98403.63;109323;1270;22528;-78
2023/01/24 06:36:15;;;;;;;46.50;14.60;;;;;;;0.07;100.00;98408.09;109410;1264;22529;-78
2023/01/24 06:38:45;;;;;;;;;;;;;;;0.07;100.00;98409.17;109330;1271;22516;-78
2023/01/24 06:41:19;;;;;;;27.00;14.00;;;;;;;0.07;100.00;98414.32;109367;1271;22502;-77
2023/01/24 06:43:50;;;;;;;26.80;13.30;;;;;;;0.08;100.00;98422.43;109451;1270;22526;-78
2023/01/24 06:46:21;;;;;;;27.30;14.70;;;;;;;0.08;100.00;98424.03;109458;1270;25243;-77
2023/01/24 06:48:52;;;;;;;27.00;15.60;;;;;;;0.07;100.00;98424.55;109477;1270;22524;-78
2023/01/24 06:51:23;;;;;;;31.10;15.50;;;;;;;0.08;100.00;98430.45;109446;1270;25878;-77
2023/01/24 06:53:54;;;;;;;33.40;14.90;;;;;;;0.08;100.00;98431.10;109330;1271;22571;-79
2023/01/24 06:56:25;;;;;;;55.50;16.80;;;;;;;0.08;100.00;98431.61;109308;1270;22573;-78
2023/01/24 06:58:56;;;;;;;50.10;16.30;;;;;;;0.08;100.00;98430.41;109373;1270;22576;-78
2023/01/24 07:01:28;;;;;;;47.30;16.00;;;;;;;0.08;100.00;98431.95;109298;1263;22550;-79
2023/01/24 07:03:59;;;;;;;92.90;19.40;;;;;;;0.09;100.00;98430.60;109289;1264;27001;-78
2023/01/24 07:06:30;;;;;;;31.30;14.60;;;;;;;0.09;100.00;98425.71;109402;1269;25554;-79
2023/01/24 07:09:01;;;;;;;34.50;16.80;;;;;;;0.10;100.00;98426.73;109359;1264;22540;-79
2023/01/24 07:11:34;;;;;;;33.30;16.40;;;;;;;0.10;100.00;98426.89;109346;1271;22648;-79
2023/01/24 07:14:05;;;;;;;25.80;16.20;;;;;;;0.11;100.00;98427.98;109460;1268;24195;-79
2023/01/24 07:16:36;;;;;;;25.80;15.70;;;;;;;0.12;100.00;98427.70;109433;1270;22533;-79
2023/01/24 07:19:08;;;;;;;26.80;15.80;;;;;;;0.13;100.00;98428.94;109441;1270;22559;-79
2023/01/24 07:21:41;;;;;;;24.20;14.90;;;;;;;0.15;100.00;98435.73;109364;1270;22532;-79
2023/01/24 07:24:17;;;;;;;27.90;15.60;;;;;;;0.17;100.00;98437.61;109417;1263;22523;-78
2023/01/24 07:26:50;;;;;;;24.80;15.30;;;;;;;0.18;100.00;98436.92;109258;1263;22539;-79
2023/01/24 07:29:22;;;;;;;26.90;15.10;;;;;;;0.20;100.00;98436.91;109400;1270;24454;-78
2023/01/24 07:31:56;;;;;;;25.10;14.60;;;;;;;0.21;100.00;98441.27;109471;1270;22576;-79
2023/01/24 07:34:27;;;;;;;24.10;15.20;;;;;;;0.23;100.00;98444.92;109445;1270;24071;-79
2023/01/24 07:36:59;;;;;;;21.50;14.30;;;;;;;0.26;100.00;98446.66;109252;1271;22699;-78
2023/01/24 07:39:33;;;;;;;27.00;15.40;;;;;;;0.29;100.00;98451.40;109374;1270;22519;-78
2023/01/24 07:42:04;;;;;;;25.90;14.20;;;;;;;0.31;100.00;98458.21;109474;1263;25296;-78
2023/01/24 07:44:37;;;;;;;26.60;15.30;;;;;;;0.31;100.00;98459.35;109473;1270;23780;-78
2023/01/24 07:47:08;;;;;;;23.00;14.80;;;;;;;0.32;100.00;98456.28;109470;1270;22550;-78
2023/01/24 07:49:40;;;;;;;22.90;14.40;;;;;;;0.34;100.00;98457.00;109434;1270;22546;-77
2023/01/24 07:52:10;;;;;;;25.50;15.90;;;;;;;0.36;100.00;98450.33;109482;1263;22533;-78
2023/01/24 07:54:41;;;;;;;24.00;14.20;;;;;;;0.38;100.00;98452.79;109477;1270;22524;-77
2023/01/24 07:57:12;;;;;;;23.20;13.60;;;;;;;0.40;100.00;98451.94;109439;1270;22534;-77
2023/01/24 07:59:46;;;;;;;20.50;13.00;;;;;;;0.41;100.00;98453.69;109410;1264;22555;-77
2023/01/24 08:02:17;;;;;;;22.10;13.30;;;;;;;0.44;100.00;98449.52;109420;1263;22533;-77
2023/01/24 08:04:48;;;;;;;23.30;13.30;;;;;;;0.47;100.00;98454.55;109392;1270;22557;-76
2023/01/24 08:07:20;;;;;;;20.40;12.50;;;;;;;0.50;100.00;98453.05;108981;1264;24734;-76
2023/01/24 08:09:54;;;;;;;21.90;12.60;;;;;;;0.54;100.00;98454.33;108935;1264;22539;-76
2023/01/24 08:12:27;;;;;;;22.50;14.00;;;;;;;0.56;100.00;98457.95;108897;1270;26384;-76
2023/01/24 08:15:00;;;;;;;21.30;14.10;;;;;;;0.57;100.00;98462.23;108987;1268;22571;-77
2023/01/24 08:17:31;;;;;;;21.80;13.50;;;;;;;0.60;100.00;98461.38;108929;1264;22518;-77
2023/01/24 08:20:03;;;;;;;22.80;14.60;;;;;;;0.62;100.00;98463.41;108979;1270;22557;-77
2023/01/24 08:22:38;;;;;;;24.40;14.40;;;;;;;0.63;100.00;98468.36;109373;1270;22517;-77
2023/01/24 08:25:10;;;;;;;22.60;14.20;;;;;;;0.64;100.00;98471.10;108919;1270;26701;-77
2023/01/24 08:27:43;;;;;;;22.90;15.40;;;;;;;0.63;100.00;98471.70;109420;1264;22546;-78
2023/01/24 08:30:16;;;;;;;25.70;16.20;;;;;;;0.62;100.00;98478.27;108987;1271;22528;-77
2023/01/24 08:32:49;;;;;;;26.50;16.00;;;;;;;0.63;100.00;98475.66;108921;1272;22645;-77
2023/01/24 08:35:20;;;;;;;23.10;14.00;;;;;;;0.67;100.00;98473.36;108930;1270;24255;-77
2023/01/24 08:37:51;;;;;;;27.30;16.40;;;;;;;0.66;100.00;98477.94;108974;1271;23390;-77
2023/01/24 08:40:22;;;;;;;23.10;13.20;;;;;;;0.65;100.00;98476.64;109310;1271;22554;-76
2023/01/24 08:42:53;;;;;;;21.40;14.40;;;;;;;0.66;100.00;98479.02;109407;1267;22524;-77
2023/01/24 08:45:24;;;;;;;27.60;15.80;;;;;;;0.66;100.00;98478.79;109418;1270;24057;-76
2023/01/24 08:47:56;;;;;;;24.20;14.90;;;;;;;0.67;100.00;98486.88;108955;1271;22563;-79
2023/01/24 08:50:27;;;;;;;22.30;14.10;;;;;;;0.69;100.00;98482.30;109357;1263;25257;-79
2023/01/24 08:52:58;;;;;;;25.10;14.80;;;;;;;0.72;100.00;98486.90;109312;1271;22521;-79
2023/01/24 08:55:30;;;;;;;24.90;14.70;;;;;;;0.73;100.00;98489.90;109425;1270;22533;-79
2023/01/24 08:58:05;;;;;;;25.80;15.50;;;;;;;0.76;100.00;98492.53;109354;1270;22649;-79
2023/01/24 09:00:36;;;;;;;25.10;16.20;;;;;;;0.77;100.00;98493.99;109351;1247;22533;-79
2023/01/24 09:03:07;;;;;;;25.00;15.20;;;;;;;0.79;100.00;98497.50;109381;1264;22544;-78
2023/01/24 09:05:39;;;;;;;26.00;16.20;;;;;;;0.82;100.00;98502.38;109391;1268;22551;-79
2023/01/24 09:08:11;;;;;;;26.10;15.60;;;;;;;0.86;100.00;98498.86;109490;1263;25341;-78
2023/01/24 09:10:45;;;;;;;24.80;15.40;;;;;;;0.89;100.00;98495.61;109446;1271;23306;-79
2023/01/24 09:13:16;;;;;;;23.90;15.00;;;;;;;0.92;100.00;98500.77;109513;1270;22955;-79
2023/01/24 09:15:47;;;;;;;26.10;15.30;;;;;;;0.98;100.00;98500.48;109499;1270;23857;-79
2023/01/24 09:18:18;;;;;;;28.10;16.00;;;;;;;1.02;100.00;98499.05;109521;1270;22511;-79
2023/01/24 09:20:49;;;;;;;24.00;14.50;;;;;;;1.03;100.00;98499.69;109496;1270;22518;-78
2023/01/24 09:23:20;;;;;;;22.90;13.80;;;;;;;1.06;100.00;98502.31;109402;1271;24609;-79
2023/01/24 09:25:54;;;;;;;20.10;13.40;;;;;;;1.09;100.00;98499.95;109415;1271;23732;-80
2023/01/24 09:28:26;;;;;;;22.10;13.20;;;;;;;1.11;100.00;98499.98;109348;1269;22738;-80
2023/01/24 09:30:57;;;;;;;19.80;12.40;;;;;;;1.15;100.00;98497.02;109423;1271;22622;-78
2023/01/24 09:33:28;;;;;;;19.40;13.10;;;;;;;1.16;100.00;98493.61;109351;1264;22536;-79
2023/01/24 09:36:01;;;;;;;19.80;12.90;;;;;;;1.17;100.00;98495.53;109446;1269;22564;-79
2023/01/24 09:38:34;;;;;;;26.10;16.00;;;;;;;1.18;100.00;98497.52;109385;1267;24181;-79
2023/01/24 09:41:16;;;;;;;23.30;14.40;;;;;;;1.19;100.00;98499.11;109334;1263;22573;-79
2023/01/24 09:43:53;;;;;;;24.60;15.10;;;;;;;1.20;100.00;98495.38;109398;1270;22595;-81
2023/01/24 09:46:32;;;;;;;25.70;15.40;;;;;;;1.21;100.00;98492.89;109313;1266;23182;-80
2023/01/24 09:49:17;;;;;;;20.80;13.80;;;;;;;1.21;100.00;98492.31;109341;1263;22552;-78
2023/01/24 09:51:54;;;;;;;36.10;17.70;;;;;;;1.23;100.00;98493.17;110820;1271;22176;-79
2023/01/24 09:54:36;;;;;;;32.00;15.80;;;;;;;1.24;100.00;98492.15;110898;1270;22932;-77
2023/01/24 09:57:20;;;;;;;39.70;16.40;;;;;;;1.24;100.00;98494.40;109867;1270;24241;-76
2023/01/24 09:59:57;;;;;;;47.30;16.50;;;;;;;1.25;100.00;98490.35;108792;1264;22719;-78
2023/01/24 10:02:30;;;;;;;25.90;15.80;;;;;;;1.27;100.00;98491.71;109545;1266;22603;-78
2023/01/24 10:05:01;;;;;;;30.40;16.40;;;;;;;1.28;100.00;98488.98;109268;1271;22646;-79
2023/01/24 10:07:59;;;;;;;29.60;13.80;;;;;;;1.28;100.00;98489.83;109274;1270;22543;-78
2023/01/24 10:10:50;;;;;;;33.10;14.60;;;;;;;1.27;100.00;98490.58;109342;1270;22542;-78
2023/01/24 10:13:50;;;;;;;33.70;16.30;;;;;;;1.23;100.00;98489.35;109334;1269;22697;-78
2023/01/24 10:16:42;;;;;;;31.10;14.90;;;;;;;1.19;100.00;98488.73;109427;1264;22532;-78
2023/01/24 10:19:25;;;;;;;39.50;16.30;;;;;;;1.16;100.00;98484.83;109411;1270;22525;-78
2023/01/24 10:22:22;;;;;;;32.80;16.40;;;;;;;1.14;100.00;98488.73;109374;1270;24343;-78
2023/01/24 10:24:58;;;;;;;43.90;16.60;;;;;;;1.14;100.00;98487.64;109232;1264;27078;-78
2023/01/24 10:27:33;;;;;;;37.20;17.60;;;;;;;1.17;100.00;98487.05;109352;1270;22786;-78
2023/01/24 10:30:18;;;;;;;38.80;16.10;;;;;;;1.17;100.00;98484.92;109378;1271;22524;-78
2023/01/24 10:32:53;;;;;;;34.70;16.70;;;;;;;1.18;100.00;98482.53;109391;1270;22551;-78
2023/01/24 10:35:30;;;;;;;35.30;15.70;;;;;;;1.19;100.00;98478.45;109405;1270;23350;-78
2023/01/24 10:38:06;;;;;;;51.70;17.20;;;;;;;1.17;100.00;98478.66;109325;1259;22520;-78
2023/01/24 10:40:51;;;;;;;57.10;20.80;;;;;;;1.16;100.00;98477.52;109383;1270;22551;-78
2023/01/24 10:43:26;;;;;;;59.20;17.90;;;;;;;1.14;100.00;98472.17;109429;1263;22521;-78
2023/01/24 10:46:19;;;;;;;32.50;17.30;;;;;;;1.14;100.00;98474.59;109358;1269;27369;-78
2023/01/24 10:48:54;;;;;;;95.30;21.20;;;;;;;1.14;100.00;98471.73;109355;1270;24334;-78
2023/01/24 10:51:26;;;;;;;53.40;17.40;;;;;;;1.14;100.00;98466.66;109264;1261;22527;-78
2023/01/24 10:54:03;;;;;;;48.20;14.80;;;;;;;1.14;100.00;98462.21;109326;1270;24175;-79
2023/01/24 10:56:41;;;;;;;41.10;17.20;;;;;;;1.15;100.00;98460.74;109321;1270;24215;-78
2023/01/24 10:59:15;;;;;;;43.30;17.00;;;;;;;1.16;100.00;98461.03;109425;1270;24319;-78
2023/01/24 11:01:48;;;;;;;47.80;14.40;;;;;;;1.15;100.00;98459.70;109313;1270;22524;-78
2023/01/24 11:04:27;;;;;;;78.10;19.10;;;;;;;1.14;100.00;98461.44;109278;1270;25459;-78
2023/01/24 11:07:00;;;;;;;66.60;17.20;;;;;;;1.12;100.00;98461.46;109421;1251;24228;-78
2023/01/24 11:09:34;;;;;;;71.20;17.10;;;;;;;1.11;100.00;98459.30;109301;1270;22537;-78
2023/01/24 11:12:05;;;;;;;64.50;16.00;;;;;;;1.10;100.00;98462.41;109268;1271;25348;-78
2023/01/24 11:14:37;;;;;;;52.40;15.70;;;;;;;1.06;100.00;98458.30;109389;1270;25446;-78
2023/01/24 11:17:36;;;;;;;72.30;14.90;;;;;;;1.05;100.00;98458.77;109439;1270;22924;-78
2023/01/24 11:20:23;;;;;;;80.30;13.90;;;;;;;1.03;100.00;98456.86;109388;1270;22538;-78
2023/01/24 11:23:04;;;;;;;58.10;13.60;;;;;;;1.02;100.00;98453.34;109425;1270;22561;-78
2023/01/24 11:25:35;;;;;;;60.40;13.80;;;;;;;1.01;100.00;98452.35;109398;1270;43365;-77
2023/01/24 11:28:23;;;;;;;48.00;14.10;;;;;;;1.00;100.00;98451.30;109249;1271;22534;-77
2023/01/24 11:30:55;;;;;;;67.30;13.80;;;;;;;1.01;100.00;98452.43;109298;1272;22644;-78
2023/01/24 11:33:37;;;;;;;58.60;13.60;;;;;;;1.02;100.00;98448.52;109281;1271;22548;-78
2023/01/24 11:36:22;;;;;;;50.90;13.60;;;;;;;1.01;100.00;98448.22;109269;1272;22524;-78
2023/01/24 11:38:58;;;;;;;62.40;14.90;;;;;;;1.03;100.00;98448.23;109349;1269;22518;-77
2023/01/24 11:41:39;;;;;;;52.10;13.30;;;;;;;1.02;100.00;98445.73;109294;1266;22542;-77
2023/01/24 11:44:35;;;;;;;43.00;13.20;;;;;;;1.00;100.00;98446.10;109378;1270;22580;-78
2023/01/24 11:47:14;;;;;;;52.60;13.60;;;;;;;0.98;100.00;98443.72;109297;1271;25265;-77
2023/01/24 11:50:03;;;;;;;46.50;13.10;;;;;;;0.97;100.00;98441.37;109316;1270;22646;-77
2023/01/24 11:52:49;;;;;;;29.20;11.30;;;;;;;0.94;100.00;98437.34;109237;1266;22669;-77
2023/01/24 11:55:35;;;;;;;48.10;11.50;;;;;;;0.92;100.00;98438.64;109389;1270;22578;-77
2023/01/24 11:58:25;;;;;;;30.30;11.10;;;;;;;0.90;100.00;98437.96;109363;1263;25264;-77
2023/01/24 12:01:05;;;;;;;32.80;11.90;;;;;;;0.87;100.00;98437.34;109397;1270;22528;-78
2023/01/24 12:03:54;;;;;;;;;;;;;;;0.85;100.00;98437.99;109306;1264;22536;-77
2023/01/24 12:06:37;;;;;;;36.70;11.00;;;;;;;0.85;100.00;98435.84;109346;1264;22532;-77
2023/01/24 12:09:20;;;;;;;62.40;13.30;;;;;;;0.84;100.00;98438.54;109377;1267;22644;-77
2023/01/24 12:12:03;;;;;;;55.60;13.80;;;;;;;0.84;100.00;98433.39;109390;1264;24268;-77
2023/01/24 12:15:13;;;;;;;45.70;13.40;;;;;;;0.86;100.00;98434.47;109342;1270;25271;-77
2023/01/24 12:18:19;;;;;;;37.20;12.00;;;;;;;0.85;100.00;98434.34;109339;1270;22543;-77
2023/01/24 12:21:00;;;;;;;28.70;13.20;;;;;;;0.85;100.00;98433.39;109361;1270;22524;-77